createdAt,value
2018-06-28T00:00:26.363Z,95907.6
2018-06-28T00:01:28.808Z,95906.7
2018-06-28T00:02:31.011Z,95903.5
2018-06-28T00:03:32.879Z,95907.3
2018-06-28T00:04:35.048Z,95908.7
2018-06-28T00:05:36.920Z,95908.3
2018-06-28T00:06:39.377Z,95904.5
2018-06-28T00:07:41.820Z,95908
2018-06-28T00:08:44.134Z,95903.4
2018-06-28T00:09:46.006Z,95903.2
2018-06-28T00:10:48.171Z,95903.3
2018-06-28T00:11:50.356Z,95903.5
2018-06-28T00:12:52.810Z,95901.2
2018-06-28T00:13:55.263Z,95894
2018-06-28T00:14:57.430Z,95891.7
2018-06-28T00:15:59.883Z,95890.1
2018-06-28T00:17:01.779Z,95890.2
2018-06-28T00:18:03.968Z,95891.3
2018-06-28T00:19:06.416Z,95892.3
2018-06-28T00:20:08.583Z,95895.7
2018-06-28T00:21:10.192Z,95893
2018-06-28T00:22:12.357Z,95894.9
2018-06-28T00:23:14.542Z,95894.2
2018-06-28T00:24:16.723Z,95899.1
2018-06-28T00:25:18.890Z,95898.6
2018-06-28T00:26:21.343Z,95900
2018-06-28T00:27:23.255Z,95901.1
2018-06-28T00:28:25.191Z,95900.8
2018-06-28T00:29:27.067Z,95896.7
2018-06-28T00:30:29.248Z,95897.5
2018-06-28T00:31:31.690Z,95897.4
2018-06-28T00:32:33.878Z,95891.1
2018-06-28T00:33:36.074Z,95890.5
2018-06-28T00:34:38.540Z,95892
2018-06-28T00:35:40.992Z,95892.8
2018-06-28T00:36:43.449Z,95891.9
2018-06-28T00:37:45.339Z,95894.2
2018-06-28T00:38:47.527Z,95895.9
2018-06-28T00:39:49.697Z,95895.1
2018-06-28T00:40:52.149Z,95894.2
2018-06-28T00:41:54.603Z,95893.2
2018-06-28T00:42:57.055Z,95889.9
2018-06-28T00:43:58.700Z,95889.4
2018-06-28T00:45:01.146Z,95891.4
2018-06-28T00:46:03.619Z,95889.5
2018-06-28T00:47:05.789Z,95889.4
2018-06-28T00:48:07.705Z,95882.2
2018-06-28T00:49:10.148Z,95884.1
2018-06-28T00:50:12.339Z,95878.2
2018-06-28T00:51:14.784Z,95880.4
2018-06-28T00:52:16.687Z,95878.3
2018-06-28T00:53:18.873Z,95876.4
2018-06-28T00:54:21.313Z,95880
2018-06-28T00:55:23.759Z,95870.6
2018-06-28T00:56:25.905Z,95872.9
2018-06-28T00:57:27.791Z,95871.3
2018-06-28T00:58:30.239Z,95874.7
2018-06-28T00:59:32.394Z,95873.7
2018-06-28T01:00:34.565Z,95876
2018-06-28T01:01:36.739Z,95873.2
2018-06-28T01:02:39.188Z,95871.6
2018-06-28T01:03:41.134Z,95867.4
2018-06-28T01:04:43.578Z,95874.8
2018-06-28T01:05:45.778Z,95869.1
2018-06-28T01:06:47.942Z,95870.9
2018-06-28T01:07:50.142Z,95864.8
2018-06-28T01:08:52.328Z,95861.7
2018-06-28T01:09:54.498Z,95865.6
2018-06-28T01:10:56.667Z,95860.9
2018-06-28T01:11:59.107Z,95858.8
2018-06-28T01:13:01.562Z,95858.7
2018-06-28T01:14:04.009Z,95863.2
2018-06-28T01:15:05.913Z,95862.2
2018-06-28T01:16:08.352Z,95858.2
2018-06-28T01:17:10.791Z,95855.5
2018-06-28T01:18:12.687Z,95851.9
2018-06-28T01:19:15.132Z,95847.9
2018-06-28T01:20:17.321Z,95844
2018-06-28T01:21:18.982Z,95843.7
2018-06-28T01:22:21.164Z,95847.9
2018-06-28T01:23:23.324Z,95842.7
2018-06-28T01:24:25.193Z,95845.3
2018-06-28T01:25:27.628Z,95847.6
2018-06-28T01:26:29.809Z,95845.3
2018-06-28T01:27:31.977Z,95848.2
2018-06-28T01:28:34.186Z,95849.5
2018-06-28T01:29:36.399Z,95850.4
2018-06-28T01:30:38.854Z,95852.8
2018-06-28T01:31:41.027Z,95848
2018-06-28T01:32:43.197Z,95846.1
2018-06-28T01:33:45.648Z,95849.5
2018-06-28T01:34:47.559Z,95851.5
2018-06-28T01:35:50.001Z,95850.5
2018-06-28T01:36:52.447Z,95851.7
2018-06-28T01:37:54.335Z,95848.6
2018-06-28T01:38:56.487Z,95851.3
2018-06-28T01:39:58.927Z,95853.8
2018-06-28T01:41:01.131Z,95848.1
2018-06-28T01:42:03.007Z,95849
2018-06-28T01:43:05.189Z,95847.3
2018-06-28T01:44:07.348Z,95848.3
2018-06-28T01:45:08.977Z,95848.2
2018-06-28T01:46:11.120Z,95847.6
2018-06-28T01:47:13.279Z,95846.1
2018-06-28T01:48:14.923Z,95844
2018-06-28T01:49:17.378Z,95842.2
2018-06-28T01:50:19.550Z,95845.8
2018-06-28T01:51:22.013Z,95839.4
2018-06-28T01:52:23.623Z,95843
2018-06-28T01:53:25.766Z,95837.7
2018-06-28T01:54:27.696Z,95838.9
2018-06-28T01:55:29.860Z,95836.7
2018-06-28T01:56:32.057Z,95839
2018-06-28T01:57:34.213Z,95838.4
2018-06-28T01:58:36.660Z,95839.4
2018-06-28T01:59:38.848Z,95835.9
2018-06-28T02:00:41.305Z,95836.4
2018-06-28T02:01:43.748Z,95837.4
2018-06-28T02:02:45.666Z,95834.3
2018-06-28T02:03:47.849Z,95833.3
2018-06-28T02:04:50.287Z,95833
2018-06-28T02:05:52.736Z,95831.6
2018-06-28T02:06:54.926Z,95829.7
2018-06-28T02:07:56.831Z,95830.7
2018-06-28T02:08:58.727Z,95827.5
2018-06-28T02:10:00.922Z,95832.7
2018-06-28T02:11:02.538Z,95830.1
2018-06-28T02:12:04.712Z,95829.4
2018-06-28T02:13:06.892Z,95829.7
2018-06-28T02:14:09.353Z,95828.9
2018-06-28T02:15:11.787Z,95828.9
2018-06-28T02:16:13.958Z,95832.1
2018-06-28T02:17:16.129Z,95832.7
2018-06-28T02:18:18.584Z,95826.8
2018-06-28T02:19:20.765Z,95829.9
2018-06-28T02:20:22.933Z,95829.2
2018-06-28T02:21:25.090Z,95830.2
2018-06-28T02:22:26.998Z,95832.1
2018-06-28T02:23:29.447Z,95828.1
2018-06-28T02:24:31.059Z,95825.9
2018-06-28T02:25:33.510Z,95825.2
2018-06-28T02:26:35.703Z,95822.6
2018-06-28T02:27:37.877Z,95826.2
2018-06-28T02:28:40.063Z,95826.3
2018-06-28T02:29:42.214Z,95823.8
2018-06-28T02:30:43.850Z,95824.8
2018-06-28T02:31:45.732Z,95822.5
2018-06-28T02:32:48.187Z,95822.6
2018-06-28T02:33:50.634Z,95822.1
2018-06-28T02:34:53.088Z,95825.2
2018-06-28T02:35:55.282Z,95825.4
2018-06-28T02:36:57.738Z,95826.4
2018-06-28T02:37:59.933Z,95824.5
2018-06-28T02:39:02.097Z,95823.8
2018-06-28T02:40:04.547Z,95823.8
2018-06-28T02:41:07.040Z,95829.3
2018-06-28T02:42:09.488Z,95826.6
2018-06-28T02:43:11.397Z,95824.8
2018-06-28T02:44:13.621Z,95826.3
2018-06-28T02:45:15.821Z,95825.7
2018-06-28T02:46:18.010Z,95825.2
2018-06-28T02:47:19.907Z,95825.5
2018-06-28T02:48:22.080Z,95827.5
2018-06-28T02:49:24.256Z,95826.1
2018-06-28T02:50:26.464Z,95825.2
2018-06-28T02:51:28.912Z,95823.3
2018-06-28T02:52:30.829Z,95827.3
2018-06-28T02:53:33.008Z,95825.4
2018-06-28T02:54:35.464Z,95824.5
2018-06-28T02:55:37.929Z,95821.4
2018-06-28T02:56:40.112Z,95823.1
2018-06-28T02:57:42.015Z,95822.8
2018-06-28T02:58:44.478Z,95826.4
2018-06-28T02:59:46.360Z,95826.3
2018-06-28T03:00:48.515Z,95820.5
2018-06-28T03:01:50.686Z,95821.1
2018-06-28T03:02:52.875Z,95822.5
2018-06-28T03:03:55.043Z,95821
2018-06-28T03:04:57.557Z,95823.9
2018-06-28T03:05:59.700Z,95824.6
2018-06-28T03:07:02.148Z,95826.8
2018-06-28T03:08:04.084Z,95825.6
2018-06-28T03:09:06.271Z,95826
2018-06-28T03:10:08.451Z,95825
2018-06-28T03:11:10.601Z,95828.4
2018-06-28T03:12:12.484Z,95828.5
2018-06-28T03:13:14.688Z,95826
2018-06-28T03:14:16.854Z,95828.8
2018-06-28T03:15:18.769Z,95829.7
2018-06-28T03:16:21.238Z,95827.5
2018-06-28T03:17:23.690Z,95826.5
2018-06-28T03:18:25.884Z,95829.5
2018-06-28T03:19:28.073Z,95830
2018-06-28T03:20:30.530Z,95826.4
2018-06-28T03:21:32.979Z,95829.3
2018-06-28T03:22:35.440Z,95830.8
2018-06-28T03:23:37.629Z,95830.2
2018-06-28T03:24:39.779Z,95834.8
2018-06-28T03:25:41.957Z,95833.8
2018-06-28T03:26:44.398Z,95830.3
2018-06-28T03:27:46.578Z,95832.8
2018-06-28T03:28:49.026Z,95829.7
2018-06-28T03:29:51.194Z,95833.6
2018-06-28T03:30:53.889Z,95830.7
2018-06-28T03:31:55.892Z,95830.6
2018-06-28T03:32:57.790Z,95830.7
2018-06-28T03:33:59.401Z,95827.4
2018-06-28T03:35:01.549Z,95829.8
2018-06-28T03:36:03.719Z,95833
2018-06-28T03:37:06.170Z,95829.7
2018-06-28T03:38:08.618Z,95829.8
2018-06-28T03:39:10.813Z,95830.7
2018-06-28T03:40:13.253Z,95827.7
2018-06-28T03:41:15.429Z,95825.6
2018-06-28T03:42:17.340Z,95827.6
2018-06-28T03:43:19.775Z,95828.2
2018-06-28T03:44:21.975Z,95830
2018-06-28T03:45:23.877Z,95826.2
2018-06-28T03:46:26.070Z,95829.5
2018-06-28T03:47:27.980Z,95821
2018-06-28T03:48:29.886Z,95822.5
2018-06-28T03:49:32.040Z,95825.6
2018-06-28T03:50:34.483Z,95824.4
2018-06-28T03:51:36.388Z,95824.3
2018-06-28T03:52:38.555Z,95819.8
2018-06-28T03:53:41.003Z,95825.6
2018-06-28T03:54:42.920Z,95824.2
2018-06-28T03:55:45.370Z,95820
2018-06-28T03:56:47.812Z,95822.1
2018-06-28T03:57:49.818Z,95814
2018-06-28T03:58:52.400Z,95821.5
2018-06-28T03:59:54.635Z,95818.7
2018-06-28T04:00:56.822Z,95823.1
2018-06-28T04:01:59.261Z,95816.4
2018-06-28T04:03:01.708Z,95821.7
2018-06-28T04:04:04.157Z,95816.1
2018-06-28T04:05:06.340Z,95817.8
2018-06-28T04:06:08.803Z,95817.6
2018-06-28T04:07:10.983Z,95818
2018-06-28T04:08:13.426Z,95821.8
2018-06-28T04:09:15.298Z,95824.5
2018-06-28T04:10:17.477Z,95825.6
2018-06-28T04:11:19.682Z,95825.5
2018-06-28T04:12:21.867Z,95822.1
2018-06-28T04:13:24.041Z,95828.2
2018-06-28T04:14:26.499Z,95827.6
2018-06-28T04:15:28.674Z,95825.1
2018-06-28T04:16:30.589Z,95824.7
2018-06-28T04:17:33.037Z,95825.8
2018-06-28T04:18:34.941Z,95823.8
2018-06-28T04:19:37.420Z,95827.1
2018-06-28T04:20:39.602Z,95827.6
2018-06-28T04:21:42.066Z,95827.4
2018-06-28T04:22:44.259Z,95829.5
2018-06-28T04:23:46.146Z,95825.8
2018-06-28T04:24:48.589Z,95829
2018-06-28T04:25:50.482Z,95831.2
2018-06-28T04:26:52.654Z,95826.9
2018-06-28T04:27:55.108Z,95828.7
2018-06-28T04:28:57.298Z,95826.4
2018-06-28T04:29:59.446Z,95825.3
2018-06-28T04:31:01.335Z,95820.4
2018-06-28T04:32:03.785Z,95825.1
2018-06-28T04:33:05.960Z,95822
2018-06-28T04:34:08.409Z,95824.7
2018-06-28T04:35:10.036Z,95824.4
2018-06-28T04:36:12.210Z,95824
2018-06-28T04:37:14.099Z,95825.1
2018-06-28T04:38:16.287Z,95824.1
2018-06-28T04:39:18.739Z,95822.8
2018-06-28T04:40:20.924Z,95832
2018-06-28T04:41:23.376Z,95828.9
2018-06-28T04:42:25.555Z,95828.4
2018-06-28T04:43:27.734Z,95822.5
2018-06-28T04:44:29.351Z,95825.9
2018-06-28T04:45:31.799Z,95822
2018-06-28T04:46:33.988Z,95825.5
2018-06-28T04:47:36.454Z,95820.7
2018-06-28T04:48:38.909Z,95825
2018-06-28T04:49:41.063Z,95821
2018-06-28T04:50:43.233Z,95822.3
2018-06-28T04:51:45.697Z,95822.5
2018-06-28T04:52:47.861Z,95821.2
2018-06-28T04:53:50.044Z,95824.5
2018-06-28T04:54:52.225Z,95825.9
2018-06-28T04:55:54.691Z,95823
2018-06-28T04:56:57.344Z,95827.9
2018-06-28T04:57:59.786Z,95828.2
2018-06-28T04:59:02.232Z,95827.5
2018-06-28T05:00:04.118Z,95827.2
2018-06-28T05:01:06.296Z,95828.2
2018-06-28T05:02:08.500Z,95824
2018-06-28T05:03:10.956Z,95824.7
2018-06-28T05:04:13.128Z,95823.8
2018-06-28T05:05:15.593Z,95821.5
2018-06-28T05:06:18.052Z,95820.7
2018-06-28T05:07:19.956Z,95823.1
2018-06-28T05:08:22.217Z,95824.6
2018-06-28T05:09:24.397Z,95822.4
2018-06-28T05:10:26.860Z,95818.8
2018-06-28T05:11:29.020Z,95822
2018-06-28T05:12:31.214Z,95815.3
2018-06-28T05:13:33.380Z,95822.1
2018-06-28T05:14:35.303Z,95822.9
2018-06-28T05:15:37.748Z,95820.8
2018-06-28T05:16:39.630Z,95820.5
2018-06-28T05:17:42.090Z,95821.5
2018-06-28T05:18:44.265Z,95818.4
2018-06-28T05:19:46.452Z,95818.4
2018-06-28T05:20:48.725Z,95816.5
2018-06-28T05:21:51.221Z,95814.6
2018-06-28T05:22:53.595Z,95815
2018-06-28T05:23:56.108Z,95816.5
2018-06-28T05:24:58.051Z,95814.8
2018-06-28T05:26:00.590Z,95817.9
2018-06-28T05:27:02.780Z,95815.9
2018-06-28T05:28:05.307Z,95813.7
2018-06-28T05:29:07.325Z,95811.1
2018-06-28T05:30:09.292Z,95808.5
2018-06-28T05:31:11.741Z,95811.5
2018-06-28T05:32:13.633Z,95812.8
2018-06-28T05:33:15.838Z,95814.9
2018-06-28T05:34:17.910Z,95813.8
2018-06-28T05:35:19.818Z,95810.7
2018-06-28T05:36:22.266Z,95809.9
2018-06-28T05:37:24.721Z,95810.9
2018-06-28T05:38:26.900Z,95813.1
2018-06-28T05:39:29.338Z,95814.5
2018-06-28T05:40:31.794Z,95810.4
2018-06-28T05:41:33.942Z,95807.6
2018-06-28T05:42:36.129Z,95809.3
2018-06-28T05:43:38.582Z,95808
2018-06-28T05:44:40.455Z,95810.8
2018-06-28T05:45:42.919Z,95806.6
2018-06-28T05:46:45.373Z,95804.6
2018-06-28T05:47:47.840Z,95804.8
2018-06-28T05:48:50.023Z,95808.7
2018-06-28T05:49:52.486Z,95810.8
2018-06-28T05:50:54.660Z,95806.2
2018-06-28T05:51:57.129Z,95806.9
2018-06-28T05:52:59.583Z,95805.8
2018-06-28T05:54:02.278Z,95803.8
2018-06-28T05:55:04.487Z,95804.8
2018-06-28T05:56:06.939Z,95805.5
2018-06-28T05:57:09.120Z,95805
2018-06-28T05:58:11.315Z,95807.9
2018-06-28T05:59:13.226Z,95809.7
2018-06-28T06:00:15.102Z,95811.3
2018-06-28T06:01:17.652Z,95815.1
2018-06-28T06:02:20.132Z,95811
2018-06-28T06:03:22.586Z,95813
2018-06-28T06:04:24.748Z,95816.4
2018-06-28T06:05:26.917Z,95812.8
2018-06-28T06:06:29.103Z,95815
2018-06-28T06:07:31.315Z,95816.9
2018-06-28T06:08:33.761Z,95819.2
2018-06-28T06:09:35.929Z,95818.4
2018-06-28T06:10:38.392Z,95817.9
2018-06-28T06:11:40.304Z,95815.8
2018-06-28T06:12:42.175Z,95820.3
2018-06-28T06:13:44.354Z,95819.2
2018-06-28T06:14:46.800Z,95819
2018-06-28T06:15:48.951Z,95815.5
2018-06-28T06:16:51.139Z,95818.9
2018-06-28T06:17:53.591Z,95812
2018-06-28T06:18:56.031Z,95815.8
2018-06-28T06:19:58.202Z,95816.1
2018-06-28T06:21:00.378Z,95813.4
2018-06-28T06:22:02.550Z,95813.8
2018-06-28T06:23:05.007Z,95811.6
2018-06-28T06:24:07.161Z,95808.3
2018-06-28T06:25:09.316Z,95810.5
2018-06-28T06:26:11.224Z,95809.1
2018-06-28T06:27:13.675Z,95808.7
2018-06-28T06:28:16.139Z,95809.4
2018-06-28T06:29:18.046Z,95806.5
2018-06-28T06:30:20.546Z,95808.1
2018-06-28T06:31:22.726Z,95806.4
2018-06-28T06:32:24.890Z,95801
2018-06-28T06:33:26.769Z,95796.6
2018-06-28T06:34:28.425Z,95794.2
2018-06-28T06:35:30.910Z,95798.6
2018-06-28T06:36:33.374Z,95793.3
2018-06-28T06:37:35.549Z,95796.4
2018-06-28T06:38:37.436Z,95794.3
2018-06-28T06:39:39.889Z,95792.9
2018-06-28T06:40:42.055Z,95795.8
2018-06-28T06:41:44.243Z,95795.5
2018-06-28T06:42:46.406Z,95791
2018-06-28T06:43:48.642Z,95794.7
2018-06-28T06:44:50.839Z,95791.7
2018-06-28T06:45:53.297Z,95793
2018-06-28T06:46:55.492Z,95793.6
2018-06-28T06:47:57.676Z,95793.1
2018-06-28T06:48:59.853Z,95793.5
2018-06-28T06:50:01.714Z,95791
2018-06-28T06:51:03.873Z,95790.6
2018-06-28T06:52:06.327Z,95792.5
2018-06-28T06:53:08.614Z,95783.7
2018-06-28T06:54:10.415Z,95785.7
2018-06-28T06:55:12.590Z,95789.1
2018-06-28T06:56:15.073Z,95789.3
2018-06-28T06:57:17.232Z,95792.3
2018-06-28T06:58:19.416Z,95793.4
2018-06-28T06:59:21.875Z,95789.3
2018-06-28T07:00:24.051Z,95788.8
2018-06-28T07:01:26.505Z,95787.9
2018-06-28T07:02:28.656Z,95787.2
2018-06-28T07:03:30.858Z,95789.1
2018-06-28T07:04:33.536Z,95790.2
2018-06-28T07:05:36.010Z,95786.1
2018-06-28T07:06:38.175Z,95786.9
2018-06-28T07:07:40.646Z,95790.6
2018-06-28T07:08:43.091Z,95785.3
2018-06-28T07:09:45.547Z,95779.8
2018-06-28T07:10:48.007Z,95780
2018-06-28T07:11:50.448Z,95779.7
2018-06-28T07:12:52.641Z,95778.5
2018-06-28T07:13:54.822Z,95778.7
2018-06-28T07:14:57.035Z,95782.6
2018-06-28T07:15:59.641Z,95771.8
2018-06-28T07:17:02.028Z,95778.9
2018-06-28T07:18:04.203Z,95776.5
2018-06-28T07:19:06.388Z,95776.2
2018-06-28T07:20:08.320Z,95776.1
2018-06-28T07:21:10.512Z,95776
2018-06-28T07:22:12.667Z,95771.5
2018-06-28T07:23:14.540Z,95774.4
2018-06-28T07:24:16.835Z,95775.5
2018-06-28T07:25:19.014Z,95778
2018-06-28T07:26:21.194Z,95773.7
2018-06-28T07:27:23.345Z,95776.7
2018-06-28T07:28:26.152Z,95778
2018-06-28T07:29:28.251Z,95777.6
2018-06-28T07:30:30.696Z,95777.4
2018-06-28T07:31:33.159Z,95784.7
2018-06-28T07:32:35.357Z,95781.8
2018-06-28T07:33:37.260Z,95777.2
2018-06-28T07:34:39.721Z,95777.8
2018-06-28T07:35:41.913Z,95778.3
2018-06-28T07:36:44.091Z,95775.9
2018-06-28T07:37:46.273Z,95775.2
2018-06-28T07:38:48.150Z,95779.9
2018-06-28T07:39:50.601Z,95776.8
2018-06-28T07:40:52.522Z,95780.5
2018-06-28T07:41:54.675Z,95772.9
2018-06-28T07:42:56.887Z,95774.4
2018-06-28T07:43:59.340Z,95775.6
2018-06-28T07:45:01.791Z,95773.9
2018-06-28T07:46:04.236Z,95773.3
2018-06-28T07:47:06.415Z,95769
2018-06-28T07:48:08.854Z,95772.8
2018-06-28T07:49:11.702Z,95774.1
2018-06-28T07:50:13.855Z,95774
2018-06-28T07:51:16.006Z,95776.7
2018-06-28T07:52:18.476Z,95779.7
2018-06-28T07:53:20.924Z,95778.8
2018-06-28T07:54:23.141Z,95781
2018-06-28T07:55:25.601Z,95781.8
2018-06-28T07:56:28.217Z,95784.9
2018-06-28T07:57:30.677Z,95782.7
2018-06-28T07:58:32.556Z,95780.7
2018-06-28T07:59:35.002Z,95782.6
2018-06-28T08:00:37.450Z,95783.9
2018-06-28T08:01:39.330Z,95785.1
2018-06-28T08:02:42.095Z,95787.8
2018-06-28T08:03:43.636Z,95786
2018-06-28T08:04:45.907Z,95791.1
2018-06-28T08:05:48.394Z,95789.3
2018-06-28T08:06:50.846Z,95787.5
2018-06-28T08:07:53.354Z,95792.1
2018-06-28T08:08:55.789Z,95789
2018-06-28T08:09:57.430Z,95791.8
2018-06-28T08:10:59.604Z,95793.8
2018-06-28T08:12:02.081Z,95785.9
2018-06-28T08:13:04.528Z,95789.5
2018-06-28T08:14:06.134Z,95790.4
2018-06-28T08:15:08.323Z,95786.2
2018-06-28T08:16:10.760Z,95788.5
2018-06-28T08:17:13.206Z,95789.8
2018-06-28T08:18:14.552Z,95789.9
2018-06-28T08:19:17.013Z,95794.4
2018-06-28T08:20:19.473Z,95791.2
2018-06-28T08:21:21.669Z,95793.2
2018-06-28T08:22:23.808Z,95796
2018-06-28T08:23:26.264Z,95795.3
2018-06-28T08:24:28.714Z,95795.4
2018-06-28T08:25:30.897Z,95797.4
2018-06-28T08:26:32.248Z,95799.3
2018-06-28T08:27:34.140Z,95794.8
2018-06-28T08:28:36.500Z,95803.1
2018-06-28T08:29:38.940Z,95801.3
2018-06-28T08:30:41.113Z,95805.9
2018-06-28T08:31:43.557Z,95805
2018-06-28T08:32:46.004Z,95806
2018-06-28T08:33:48.446Z,95801.8
2018-06-28T08:34:50.621Z,95803.6
2018-06-28T08:35:53.323Z,95803.2
2018-06-28T08:36:55.846Z,95803.4
2018-06-28T08:37:58.026Z,95806.6
2018-06-28T08:39:00.221Z,95805
2018-06-28T08:40:02.403Z,95810.7
2018-06-28T08:41:04.581Z,95810.7
2018-06-28T08:42:07.040Z,95815
2018-06-28T08:43:09.565Z,95811.5
2018-06-28T08:44:11.510Z,95812.8
2018-06-28T08:45:13.700Z,95814.3
2018-06-28T08:46:16.150Z,95812.8
2018-06-28T08:47:18.336Z,95813.4
2018-06-28T08:48:20.501Z,95813.5
2018-06-28T08:49:22.966Z,95809.6
2018-06-28T08:50:25.425Z,95810.6
2018-06-28T08:51:27.612Z,95809.7
2018-06-28T08:52:29.790Z,95809.4
2018-06-28T08:53:31.710Z,95813.8
2018-06-28T08:54:34.170Z,95812.2
2018-06-28T08:55:36.617Z,95809.5
2018-06-28T08:56:38.816Z,95812.1
2018-06-28T08:57:41.625Z,95809.6
2018-06-28T08:58:44.237Z,95803.9
2018-06-28T08:59:46.482Z,95807.3
2018-06-28T09:00:48.920Z,95799.6
2018-06-28T09:01:51.365Z,95801.1
2018-06-28T09:02:53.818Z,95801
2018-06-28T09:03:56.017Z,95802.4
2018-06-28T09:04:58.187Z,95801.1
2018-06-28T09:06:00.631Z,95794.2
2018-06-28T09:07:02.259Z,95793.4
2018-06-28T09:08:04.700Z,95794.2
2018-06-28T09:09:06.866Z,95797.9
2018-06-28T09:10:09.074Z,95801.3
2018-06-28T09:11:11.531Z,95801.1
2018-06-28T09:12:13.449Z,95805.6
2018-06-28T09:13:15.621Z,95804.7
2018-06-28T09:14:18.078Z,95808.3
2018-06-28T09:15:20.440Z,95802.2
2018-06-28T09:16:22.401Z,95805.1
2018-06-28T09:17:24.583Z,95803.9
2018-06-28T09:18:26.477Z,95807.8
2018-06-28T09:19:28.083Z,95809.9
2018-06-28T09:20:30.269Z,95811.1
2018-06-28T09:21:32.190Z,95808
2018-06-28T09:22:34.933Z,95806.3
2018-06-28T09:23:37.240Z,95810.1
2018-06-28T09:24:39.401Z,95813.6
2018-06-28T09:25:41.572Z,95815.1
2018-06-28T09:26:44.015Z,95813.8
2018-06-28T09:27:45.928Z,95806.5
2018-06-28T09:28:48.384Z,95806.4
2018-06-28T09:29:50.290Z,95798.2
2018-06-28T09:30:52.462Z,95802
2018-06-28T09:31:54.608Z,95801.1
2018-06-28T09:32:56.256Z,95796.1
2018-06-28T09:33:58.159Z,95798.4
2018-06-28T09:35:00.093Z,95793.5
2018-06-28T09:36:02.554Z,95788.6
2018-06-28T09:37:05.029Z,95791.4
2018-06-28T09:38:07.473Z,95787.5
2018-06-28T09:39:09.927Z,95784.2
2018-06-28T09:40:12.101Z,95781.8
2018-06-28T09:41:14.544Z,95780.4
2018-06-28T09:42:16.979Z,95778.7
2018-06-28T09:43:18.909Z,95776.5
2018-06-28T09:44:21.068Z,95772.7
2018-06-28T09:45:23.241Z,95771
2018-06-28T09:46:25.431Z,95772.7
2018-06-28T09:47:27.610Z,95773.6
2018-06-28T09:48:29.835Z,95764.7
2018-06-28T09:49:32.001Z,95765
2018-06-28T09:50:34.451Z,95764.3
2018-06-28T09:51:36.627Z,95763.1
2018-06-28T09:52:38.804Z,95762.7
2018-06-28T09:53:41.249Z,95765.6
2018-06-28T09:54:43.545Z,95761.9
2018-06-28T09:55:45.720Z,95759.1
2018-06-28T09:56:47.878Z,95756.1
2018-06-28T09:57:50.321Z,95761.4
2018-06-28T09:58:52.475Z,95758.7
2018-06-28T09:59:54.928Z,95755.3
2018-06-28T10:00:57.368Z,95750.3
2018-06-28T10:01:58.985Z,95753.6
2018-06-28T10:03:01.441Z,95751
2018-06-28T10:04:03.312Z,95751.2
2018-06-28T10:05:05.509Z,95751.3
2018-06-28T10:06:07.380Z,95751.6
2018-06-28T10:07:09.298Z,95750.7
2018-06-28T10:08:11.766Z,95749
2018-06-28T10:09:13.927Z,95751
2018-06-28T10:10:16.081Z,95749.5
2018-06-28T10:11:18.578Z,95751.2
2018-06-28T10:12:21.023Z,95753.5
2018-06-28T10:13:23.466Z,95754.4
2018-06-28T10:14:25.660Z,95750.9
2018-06-28T10:15:28.101Z,95755
2018-06-28T10:16:30.556Z,95753.7
2018-06-28T10:17:33.003Z,95754.2
2018-06-28T10:18:35.174Z,95752.2
2018-06-28T10:19:37.629Z,95754.3
2018-06-28T10:20:39.818Z,95749.9
2018-06-28T10:21:41.999Z,95751.5
2018-06-28T10:22:43.912Z,95744.5
2018-06-28T10:23:46.080Z,95749.9
2018-06-28T10:24:48.263Z,95748.6
2018-06-28T10:25:50.722Z,95746.8
2018-06-28T10:26:53.173Z,95748.6
2018-06-28T10:27:55.615Z,95744.6
2018-06-28T10:28:58.082Z,95742.1
2018-06-28T10:30:00.531Z,95746.1
2018-06-28T10:31:09.243Z,95748.7
2018-06-28T10:32:11.408Z,95752.8
2018-06-28T10:33:13.310Z,95749.9
2018-06-28T10:34:15.485Z,95752.7
2018-06-28T10:35:17.996Z,95756
2018-06-28T10:36:19.900Z,95756.8
2018-06-28T10:37:21.523Z,95756.3
2018-06-28T10:38:23.673Z,95755.8
2018-06-28T10:39:25.871Z,95752.9
2018-06-28T10:40:28.775Z,95752.3
2018-06-28T10:41:31.390Z,95754.2
2018-06-28T10:42:34.017Z,95750.7
2018-06-28T10:43:36.577Z,95753.5
2018-06-28T10:44:38.590Z,95752.8
2018-06-28T10:45:40.843Z,95748.4
2018-06-28T10:46:43.079Z,95754.1
2018-06-28T10:47:45.276Z,95747.9
2018-06-28T10:48:47.780Z,95751.7
2018-06-28T10:49:50.279Z,95750
2018-06-28T10:50:52.452Z,95752.7
2018-06-28T10:51:54.905Z,95750
2018-06-28T10:52:57.373Z,95745.9
2018-06-28T10:54:00.070Z,95746.8
2018-06-28T10:55:02.317Z,95745
2018-06-28T10:56:04.805Z,95749.1
2018-06-28T10:57:07.287Z,95744.5
2018-06-28T10:58:09.480Z,95745.8
2018-06-28T10:59:11.671Z,95739.9
2018-06-28T11:00:14.173Z,95739.7
2018-06-28T11:01:16.651Z,95741.9
2018-06-28T11:02:19.106Z,95735.5
2018-06-28T11:03:21.563Z,95737.7
2018-06-28T11:04:24.028Z,95739.4
2018-06-28T11:05:26.500Z,95734.8
2018-06-28T11:06:28.690Z,95733.6
2018-06-28T11:07:31.099Z,95732.8
2018-06-28T11:08:33.294Z,95732.1
2018-06-28T11:09:35.500Z,95736.3
2018-06-28T11:10:37.649Z,95733.1
2018-06-28T11:11:39.584Z,95734.5
2018-06-28T11:12:42.043Z,95734
2018-06-28T11:13:44.246Z,95737.4
2018-06-28T11:14:46.462Z,95733.2
2018-06-28T11:15:49.362Z,95733.2
2018-06-28T11:16:51.688Z,95726.7
2018-06-28T11:17:54.158Z,95729
2018-06-28T11:18:56.625Z,95727
2018-06-28T11:19:59.081Z,95728.7
2018-06-28T11:21:01.266Z,95726.1
2018-06-28T11:22:03.725Z,95724.1
2018-06-28T11:23:05.636Z,95726.2
2018-06-28T11:24:07.829Z,95731.7
2018-06-28T11:25:10.433Z,95723.4
2018-06-28T11:26:12.335Z,95726.6
2018-06-28T11:27:14.521Z,95723.3
2018-06-28T11:28:16.988Z,95726.5
2018-06-28T11:29:19.185Z,95723.9
2018-06-28T11:30:21.682Z,95719.6
2018-06-28T11:31:23.614Z,95721.7
2018-06-28T11:32:25.813Z,95720
2018-06-28T11:33:27.743Z,95716.8
2018-06-28T11:34:29.926Z,95717.8
2018-06-28T11:35:32.641Z,95722.5
2018-06-28T11:37:06.945Z,95706.7
2018-06-28T11:38:09.433Z,95707.4
2018-06-28T11:39:11.903Z,95709.7
2018-06-28T11:40:14.082Z,95706.6
2018-06-28T11:41:30.110Z,95706.6
2018-06-28T11:42:32.309Z,95703.6
2018-06-28T11:43:34.508Z,95703.9
2018-06-28T11:44:36.974Z,95701.4
2018-06-28T11:45:39.435Z,95700.7
2018-06-28T11:46:41.905Z,95699.5
2018-06-28T11:47:44.085Z,95700.6
2018-06-28T11:48:46.548Z,95700.5
2018-06-28T11:49:48.759Z,95704.3
2018-06-28T11:50:51.225Z,95700.5
2018-06-28T11:51:53.175Z,95702.8
2018-06-28T11:52:55.725Z,95697.3
2018-06-28T11:53:58.192Z,95698.5
2018-06-28T11:55:00.655Z,95700.3
2018-06-28T11:56:03.107Z,95699.4
2018-06-28T11:57:05.359Z,95700.2
2018-06-28T11:58:07.302Z,95697.8
2018-06-28T11:59:09.770Z,95697.3
2018-06-28T12:00:12.360Z,95699.2
2018-06-28T12:01:14.980Z,95694.6
2018-06-28T12:02:17.704Z,95694.4
2018-06-28T12:03:20.496Z,95694.9
2018-06-28T12:04:23.152Z,95687.6
2018-06-28T12:05:25.918Z,95688.4
2018-06-28T12:06:28.480Z,95689.5
2018-06-28T12:07:30.948Z,95690.3
2018-06-28T12:08:32.845Z,95681.8
2018-06-28T12:09:35.319Z,95685
2018-06-28T12:10:37.815Z,95681.3
2018-06-28T12:11:39.969Z,95678.3
2018-06-28T12:12:42.538Z,95675.8
2018-06-28T12:13:44.794Z,95682
2018-06-28T12:14:46.994Z,95677.4
2018-06-28T12:15:49.469Z,95678
2018-06-28T12:16:51.914Z,95677.4
2018-06-28T12:17:53.827Z,95677.6
2018-06-28T12:18:55.583Z,95676.7
2018-06-28T12:19:58.123Z,95673.6
2018-06-28T12:21:00.733Z,95670.3
2018-06-28T12:22:03.271Z,95673.5
2018-06-28T12:23:06.137Z,95669.1
2018-06-28T12:24:09.151Z,95663.1
2018-06-28T12:25:11.782Z,95671
2018-06-28T12:26:14.473Z,95668
2018-06-28T12:27:16.714Z,95667.3
2018-06-28T12:28:18.958Z,95669.6
2018-06-28T12:29:21.521Z,95669.1
2018-06-28T12:30:23.736Z,95669.5
2018-06-28T12:31:26.280Z,95669.7
2018-06-28T12:32:28.777Z,95664.4
2018-06-28T12:33:31.272Z,95664.4
2018-06-28T12:34:33.810Z,95662.1
2018-06-28T12:35:36.460Z,95661.9
2018-06-28T12:36:38.472Z,95661.4
2018-06-28T12:37:41.090Z,95660.8
2018-06-28T12:38:43.632Z,95657.8